Time;durP1;ratioP1;P1;durP2;ratioP2;P2;SDS_P1;SDS_P2;PMS_P1;PMS_P2;Temp;Humidity;BMP_temperature;BMP_pressure;BME280_temperature;BME280_humidity;BME280_pressure;Samples;Min_cycle;Max_cycle;Signal;HPM_P1;HPM_P2
2023/03/09 00:00:10;;;;;;;21.17;8.45;;;;;;;;;;4984346;28;20037;-50
2023/03/09 00:02:38;;;;;;;19.80;7.85;;;;;;;;;;4978057;28;20402;-45
2023/03/09 00:05:06;;;;;;;19.83;7.70;;;;;;;;;;4999897;28;20132;-45
2023/03/09 00:07:33;;;;;;;20.13;8.00;;;;;;;;;;4994474;28;20052;-45
2023/03/09 00:10:01;;;;;;;19.52;7.57;;;;;;;;;;4993661;28;20443;-45
2023/03/09 00:12:29;;;;;;;19.50;7.20;;;;;;;;;;4999375;28;20120;-48
2023/03/09 00:14:58;;;;;;;18.73;7.00;;;;;;;;;;4295540;28;10000233;-45
2023/03/09 00:17:25;;;;;;;19.80;8.07;;;;;;;;;;4986694;28;20133;-46
2023/03/09 00:20:00;;;;;;;20.90;7.80;;;;;;;;;;4991062;28;20802;-45
2023/03/09 00:22:28;;;;;;;19.67;7.57;;;;;;;;;;5003693;28;20610;-46
2023/03/09 00:24:56;;;;;;;18.02;7.63;;;;;;;;;;4985330;28;20037;-45
2023/03/09 00:27:25;;;;;;;18.00;7.78;;;;;;;;;;4998324;28;20132;-46
2023/03/09 00:29:52;;;;;;;18.42;7.00;;;;;;;;;;4998050;28;20041;-44
2023/03/09 00:32:22;;;;;;;18.87;7.07;;;;;;;;;;4994461;28;20055;-46
2023/03/09 00:34:51;;;;;;;19.95;8.13;;;;;;;;;;4981293;28;20048;-45
2023/03/09 00:37:21;;;;;;;20.10;6.93;;;;;;;;;;4987640;28;20043;-48
2023/03/09 00:39:51;;;;;;;18.67;6.88;;;;;;;;;;4987538;28;20558;-45
2023/03/09 00:42:19;;;;;;;22.23;7.43;;;;;;;;;;5005575;28;20560;-45
2023/03/09 00:44:46;;;;;;;16.23;6.77;;;;;;;;;;4981420;28;20048;-45
2023/03/09 00:47:14;;;;;;;19.10;8.23;;;;;;;;;;5002034;28;20531;-45
2023/03/09 00:49:43;;;;;;;17.67;6.85;;;;;;;;;;4992376;28;20658;-45
2023/03/09 00:52:11;;;;;;;19.10;7.32;;;;;;;;;;5005248;28;20069;-45
2023/03/09 00:54:38;;;;;;;21.77;7.50;;;;;;;;;;4992613;28;20388;-45
2023/03/09 00:57:06;;;;;;;20.13;7.10;;;;;;;;;;5003480;28;20072;-45
2023/03/09 00:59:34;;;;;;;19.30;7.20;;;;;;;;;;4980887;28;20771;-44
2023/03/09 01:02:01;;;;;;;19.90;7.43;;;;;;;;;;5004866;28;20029;-45
2023/03/09 01:04:29;;;;;;;18.67;7.22;;;;;;;;;;4989283;28;20071;-46
2023/03/09 01:06:58;;;;;;;17.98;6.75;;;;;;;;;;4992810;28;20034;-44
2023/03/09 01:09:29;;;;;;;16.63;6.00;;;;;;;;;;5002601;28;20091;-45
2023/03/09 01:11:58;;;;;;;15.90;5.90;;;;;;;;;;4992322;28;20098;-45
2023/03/09 01:14:25;;;;;;;17.25;6.63;;;;;;;;;;5008336;28;20065;-46
2023/03/09 01:16:53;;;;;;;15.48;5.60;;;;;;;;;;4994501;28;20414;-45
2023/03/09 01:19:25;;;;;;;14.73;5.57;;;;;;;;;;5008054;28;20069;-45
2023/03/09 01:21:53;;;;;;;14.83;6.53;;;;;;;;;;5005336;28;20048;-46
2023/03/09 01:24:22;;;;;;;15.25;5.47;;;;;;;;;;5001266;28;20072;-44
2023/03/09 01:26:50;;;;;;;15.13;5.40;;;;;;;;;;5008241;28;20495;-44
2023/03/09 01:29:17;;;;;;;16.27;5.85;;;;;;;;;;4991429;28;20471;-46
2023/03/09 01:31:45;;;;;;;15.50;5.85;;;;;;;;;;5000927;28;20044;-47
2023/03/09 01:34:13;;;;;;;14.53;5.50;;;;;;;;;;4992209;28;20054;-46
2023/03/09 01:36:41;;;;;;;14.73;5.28;;;;;;;;;;4976723;28;20500;-45
2023/03/09 01:39:09;;;;;;;15.10;5.35;;;;;;;;;;4995254;28;20095;-45
2023/03/09 01:41:38;;;;;;;13.95;5.38;;;;;;;;;;4981081;28;20081;-45
2023/03/09 01:44:09;;;;;;;13.90;5.15;;;;;;;;;;5009476;28;20041;-44
2023/03/09 01:46:46;;;;;;;14.37;5.47;;;;;;;;;;5002539;28;20124;-45
2023/03/09 01:49:17;;;;;;;16.35;4.63;;;;;;;;;;5002551;28;20041;-44
2023/03/09 01:51:52;;;;;;;14.10;5.40;;;;;;;;;;4999370;28;20440;-46
2023/03/09 01:54:21;;;;;;;13.77;4.50;;;;;;;;;;4994146;28;20038;-45
2023/03/09 01:56:52;;;;;;;14.18;5.07;;;;;;;;;;5005487;28;20042;-45
2023/03/09 01:59:21;;;;;;;14.63;5.87;;;;;;;;;;4989726;28;20649;-45
2023/03/09 02:01:49;;;;;;;15.95;5.35;;;;;;;;;;5016816;28;20556;-45
2023/03/09 02:04:18;;;;;;;13.70;5.40;;;;;;;;;;4985999;28;20392;-45
2023/03/09 02:06:46;;;;;;;14.23;5.15;;;;;;;;;;4985943;28;20092;-44
2023/03/09 02:09:21;;;;;;;15.32;5.43;;;;;;;;;;5017472;28;20116;-45
2023/03/09 02:11:49;;;;;;;14.67;4.83;;;;;;;;;;4985454;28;20039;-45
2023/03/09 02:14:18;;;;;;;15.95;5.78;;;;;;;;;;5008404;28;20041;-46
2023/03/09 02:16:46;;;;;;;14.20;5.47;;;;;;;;;;4998421;28;20029;-45
2023/03/09 02:19:22;;;;;;;15.40;5.50;;;;;;;;;;5004857;28;20120;-45
2023/03/09 02:21:52;;;;;;;14.60;4.97;;;;;;;;;;4987384;28;20125;-51
2023/03/09 02:24:22;;;;;;;16.20;5.70;;;;;;;;;;4977772;28;20075;-46
2023/03/09 02:26:51;;;;;;;14.80;5.38;;;;;;;;;;4998404;28;20684;-44
2023/03/09 02:29:20;;;;;;;14.32;5.05;;;;;;;;;;4987791;28;20037;-46
2023/03/09 02:31:47;;;;;;;15.52;5.47;;;;;;;;;;5009770;28;20124;-46
2023/03/09 02:34:15;;;;;;;15.35;6.18;;;;;;;;;;5011287;28;20048;-45
2023/03/09 02:36:43;;;;;;;15.30;5.37;;;;;;;;;;4994384;28;20774;-48
2023/03/09 02:39:14;;;;;;;16.10;5.00;;;;;;;;;;4997635;28;20077;-46
2023/03/09 02:41:43;;;;;;;12.85;5.07;;;;;;;;;;4960237;28;20780;-44
2023/03/09 02:44:10;;;;;;;14.73;5.35;;;;;;;;;;4994008;28;20048;-47
2023/03/09 02:46:39;;;;;;;16.33;5.57;;;;;;;;;;4997409;28;20112;-45
2023/03/09 02:49:07;;;;;;;15.20;5.17;;;;;;;;;;4988592;28;20595;-45
2023/03/09 02:51:35;;;;;;;15.82;5.88;;;;;;;;;;4988996;28;20492;-44
2023/03/09 02:54:02;;;;;;;16.58;5.93;;;;;;;;;;4997036;28;20221;-46
2023/03/09 02:56:32;;;;;;;14.20;5.13;;;;;;;;;;4948287;28;20040;-45
2023/03/09 02:59:01;;;;;;;18.40;6.28;;;;;;;;;;4969287;28;20476;-46
2023/03/09 03:01:29;;;;;;;16.97;5.40;;;;;;;;;;4985054;28;20038;-45
2023/03/09 03:03:59;;;;;;;17.45;6.57;;;;;;;;;;5000642;28;20054;-45
2023/03/09 03:06:28;;;;;;;14.18;4.75;;;;;;;;;;4978055;28;22782;-47
2023/03/09 03:08:56;;;;;;;15.65;5.47;;;;;;;;;;4980988;28;20112;-46
2023/03/09 03:11:23;;;;;;;17.83;5.55;;;;;;;;;;5002434;28;20041;-45
2023/03/09 03:13:54;;;;;;;15.33;6.03;;;;;;;;;;4997041;28;20067;-45
2023/03/09 03:16:22;;;;;;;15.70;5.68;;;;;;;;;;4995752;28;20091;-45
2023/03/09 03:18:49;;;;;;;15.35;5.57;;;;;;;;;;4991723;28;20037;-45
2023/03/09 03:21:18;;;;;;;17.95;5.68;;;;;;;;;;4991496;28;20120;-46
2023/03/09 03:23:47;;;;;;;16.27;5.40;;;;;;;;;;4994629;28;20049;-44
2023/03/09 03:26:15;;;;;;;16.03;5.90;;;;;;;;;;4993951;28;20080;-44
2023/03/09 03:28:42;;;;;;;15.55;6.13;;;;;;;;;;4987882;28;21338;-46
2023/03/09 03:31:11;;;;;;;15.45;4.88;;;;;;;;;;5002263;28;20152;-44
2023/03/09 03:33:38;;;;;;;16.52;5.90;;;;;;;;;;4996044;28;20048;-47
2023/03/09 03:36:06;;;;;;;15.35;5.68;;;;;;;;;;4979354;28;20152;-47
2023/03/09 03:38:35;;;;;;;17.87;6.10;;;;;;;;;;4976454;28;20073;-46
2023/03/09 03:41:03;;;;;;;17.13;6.00;;;;;;;;;;4991988;28;20099;-45
2023/03/09 03:43:31;;;;;;;18.75;6.43;;;;;;;;;;4998283;28;20043;-47
2023/03/09 03:45:58;;;;;;;21.52;6.53;;;;;;;;;;4988443;28;20073;-44
2023/03/09 03:48:26;;;;;;;17.08;5.95;;;;;;;;;;4996635;28;20033;-45
2023/03/09 03:50:54;;;;;;;15.90;5.47;;;;;;;;;;5004118;28;20120;-47
2023/03/09 03:53:21;;;;;;;15.70;4.75;;;;;;;;;;4986750;28;20481;-46
2023/03/09 03:55:50;;;;;;;15.70;5.13;;;;;;;;;;4990958;28;20046;-46
2023/03/09 03:58:18;;;;;;;16.00;5.70;;;;;;;;;;4967305;28;20683;-44
2023/03/09 04:00:46;;;;;;;18.10;6.30;;;;;;;;;;4993594;28;20126;-45
2023/03/09 04:03:14;;;;;;;15.57;5.50;;;;;;;;;;4987913;28;20046;-44
2023/03/09 04:05:41;;;;;;;16.65;5.53;;;;;;;;;;4996846;28;20522;-48
2023/03/09 04:08:09;;;;;;;14.77;4.97;;;;;;;;;;4964276;28;20527;-45
2023/03/09 04:10:38;;;;;;;16.55;5.40;;;;;;;;;;4995529;28;20033;-48
2023/03/09 04:13:08;;;;;;;14.95;5.40;;;;;;;;;;4981117;28;20872;-46
2023/03/09 04:15:36;;;;;;;16.43;5.70;;;;;;;;;;5002164;28;20069;-46
2023/03/09 04:18:04;;;;;;;17.90;6.07;;;;;;;;;;4999001;28;20505;-45
2023/03/09 04:20:32;;;;;;;15.43;5.80;;;;;;;;;;4995927;28;20480;-45
2023/03/09 04:23:00;;;;;;;16.17;5.15;;;;;;;;;;4981553;28;20851;-45
2023/03/09 04:25:28;;;;;;;14.93;4.97;;;;;;;;;;4990640;28;20132;-48
2023/03/09 04:27:56;;;;;;;18.77;6.13;;;;;;;;;;4971035;28;20037;-45
2023/03/09 04:30:26;;;;;;;17.25;5.57;;;;;;;;;;4979708;28;20137;-45
2023/03/09 04:32:53;;;;;;;19.80;6.10;;;;;;;;;;4992085;28;20041;-45
2023/03/09 04:35:21;;;;;;;18.23;5.55;;;;;;;;;;4974421;28;20038;-45
2023/03/09 04:37:48;;;;;;;17.08;5.80;;;;;;;;;;5004650;28;20209;-46
2023/03/09 04:40:17;;;;;;;17.43;6.13;;;;;;;;;;4989253;28;20034;-46
2023/03/09 04:42:45;;;;;;;17.67;5.35;;;;;;;;;;4993793;28;20115;-45
2023/03/09 04:45:13;;;;;;;21.52;6.45;;;;;;;;;;4981020;28;21044;-47
2023/03/09 04:47:42;;;;;;;16.55;5.45;;;;;;;;;;4971025;28;20580;-45
2023/03/09 04:50:10;;;;;;;17.40;5.50;;;;;;;;;;4978629;28;20977;-47
2023/03/09 04:52:38;;;;;;;17.83;5.67;;;;;;;;;;5008457;28;20051;-44
2023/03/09 04:55:06;;;;;;;18.80;5.80;;;;;;;;;;4992449;28;20124;-45
2023/03/09 04:57:35;;;;;;;15.65;4.93;;;;;;;;;;4997748;28;20088;-45
2023/03/09 05:00:07;;;;;;;14.80;5.10;;;;;;;;;;4985978;28;20152;-45
2023/03/09 05:02:35;;;;;;;16.48;5.40;;;;;;;;;;4988413;28;20138;-47
2023/03/09 05:05:04;;;;;;;17.37;5.30;;;;;;;;;;4997090;28;20628;-46
2023/03/09 05:07:32;;;;;;;14.55;5.15;;;;;;;;;;4994907;28;20030;-45
2023/03/09 05:09:59;;;;;;;14.82;5.07;;;;;;;;;;5005812;28;20041;-47
2023/03/09 05:12:31;;;;;;;15.63;5.32;;;;;;;;;;4981188;28;20061;-46
2023/03/09 05:15:00;;;;;;;14.40;5.82;;;;;;;;;;4998187;28;21616;-46
2023/03/09 05:17:29;;;;;;;15.63;5.03;;;;;;;;;;5002079;28;20563;-45
2023/03/09 05:19:58;;;;;;;14.55;5.03;;;;;;;;;;4982824;28;20959;-45
2023/03/09 05:22:27;;;;;;;16.27;5.18;;;;;;;;;;4991430;28;20124;-45
2023/03/09 05:24:56;;;;;;;16.38;5.18;;;;;;;;;;4966870;28;20407;-45
2023/03/09 05:27:24;;;;;;;17.15;5.72;;;;;;;;;;4987112;28;20067;-45
2023/03/09 05:29:52;;;;;;;17.40;5.37;;;;;;;;;;5003692;28;20065;-45
2023/03/09 05:32:22;;;;;;;16.48;5.30;;;;;;;;;;4995103;28;20136;-44
2023/03/09 05:34:50;;;;;;;16.35;5.10;;;;;;;;;;4993560;28;20423;-45
2023/03/09 05:37:18;;;;;;;18.63;6.18;;;;;;;;;;4991471;28;20049;-46
2023/03/09 05:39:47;;;;;;;21.50;5.88;;;;;;;;;;4988240;28;20064;-46
2023/03/09 05:42:15;;;;;;;16.60;5.93;;;;;;;;;;4998164;28;20105;-45
2023/03/09 05:44:43;;;;;;;17.88;5.35;;;;;;;;;;4986502;28;20107;-45
2023/03/09 05:47:10;;;;;;;17.50;5.65;;;;;;;;;;5001621;28;20124;-45
2023/03/09 05:49:38;;;;;;;18.40;5.78;;;;;;;;;;4978722;28;20385;-45
2023/03/09 05:52:06;;;;;;;16.40;5.15;;;;;;;;;;5002634;28;20096;-46
2023/03/09 05:54:36;;;;;;;19.63;6.23;;;;;;;;;;4991096;28;20044;-46
2023/03/09 05:57:05;;;;;;;18.40;6.50;;;;;;;;;;4986930;28;20038;-46
2023/03/09 05:59:34;;;;;;;17.70;5.45;;;;;;;;;;4993793;28;21347;-45
2023/03/09 06:02:02;;;;;;;21.25;5.88;;;;;;;;;;5004595;28;20502;-45
2023/03/09 06:04:29;;;;;;;18.92;6.10;;;;;;;;;;4990318;28;20037;-44
2023/03/09 06:06:57;;;;;;;17.97;5.40;;;;;;;;;;5005814;28;20056;-44
2023/03/09 06:09:25;;;;;;;20.23;5.93;;;;;;;;;;4983391;28;20048;-45
2023/03/09 06:11:53;;;;;;;18.10;5.35;;;;;;;;;;4998688;28;20037;-44
2023/03/09 06:14:22;;;;;;;19.02;5.75;;;;;;;;;;5009664;28;20041;-45
2023/03/09 06:16:49;;;;;;;19.30;5.85;;;;;;;;;;4992268;28;20117;-45
2023/03/09 06:19:17;;;;;;;17.17;5.30;;;;;;;;;;5003810;28;20085;-45
2023/03/09 06:21:45;;;;;;;17.58;5.20;;;;;;;;;;4995355;28;20875;-44
2023/03/09 06:24:12;;;;;;;19.65;5.32;;;;;;;;;;4996185;28;20045;-46
2023/03/09 06:26:40;;;;;;;19.15;5.80;;;;;;;;;;4993287;28;20045;-44
2023/03/09 06:29:08;;;;;;;20.05;5.72;;;;;;;;;;5003947;28;20507;-45
2023/03/09 06:31:37;;;;;;;21.40;6.03;;;;;;;;;;4992918;28;20053;-47
2023/03/09 06:34:05;;;;;;;23.45;5.65;;;;;;;;;;4993270;28;20052;-46
2023/03/09 06:36:34;;;;;;;23.45;6.47;;;;;;;;;;4978763;28;20116;-45
2023/03/09 06:39:02;;;;;;;21.52;6.28;;;;;;;;;;5001705;28;20099;-45
2023/03/09 06:41:31;;;;;;;19.80;5.30;;;;;;;;;;4990198;28;20030;-47
2023/03/09 06:43:59;;;;;;;19.37;5.77;;;;;;;;;;5009433;28;20041;-47
2023/03/09 06:46:27;;;;;;;22.60;6.32;;;;;;;;;;4980222;28;20693;-45
2023/03/09 06:48:58;;;;;;;25.25;6.43;;;;;;;;;;4998924;28;20045;-45
2023/03/09 06:51:26;;;;;;;20.67;5.90;;;;;;;;;;5003969;28;20303;-48
2023/03/09 06:53:53;;;;;;;20.50;6.00;;;;;;;;;;4999619;28;20046;-44
2023/03/09 06:56:21;;;;;;;23.60;6.17;;;;;;;;;;4995975;28;20056;-45
2023/03/09 06:58:48;;;;;;;22.23;6.18;;;;;;;;;;4997529;28;20138;-47
2023/03/09 07:01:16;;;;;;;27.10;6.30;;;;;;;;;;4981721;28;20041;-49
2023/03/09 07:03:44;;;;;;;24.42;6.03;;;;;;;;;;5001509;28;20122;-45
2023/03/09 07:06:13;;;;;;;24.95;5.82;;;;;;;;;;4985844;28;20498;-45
2023/03/09 07:08:41;;;;;;;22.87;5.80;;;;;;;;;;4996568;28;20072;-44
2023/03/09 07:11:09;;;;;;;17.90;4.90;;;;;;;;;;5008479;28;20976;-45
2023/03/09 07:13:36;;;;;;;22.02;5.32;;;;;;;;;;4996669;28;20492;-44
2023/03/09 07:16:04;;;;;;;26.42;6.30;;;;;;;;;;5004049;28;20038;-46
2023/03/09 07:18:33;;;;;;;23.05;5.97;;;;;;;;;;4997882;28;20051;-46
2023/03/09 07:21:01;;;;;;;25.73;7.20;;;;;;;;;;4982105;28;20377;-45
2023/03/09 07:23:31;;;;;;;26.75;6.60;;;;;;;;;;5005109;28;21067;-44
2023/03/09 07:25:59;;;;;;;25.42;5.95;;;;;;;;;;4975229;28;20180;-44
2023/03/09 07:28:27;;;;;;;24.27;5.35;;;;;;;;;;4945589;28;20034;-45
2023/03/09 07:30:57;;;;;;;24.17;6.13;;;;;;;;;;4922190;28;20065;-46
2023/03/09 07:33:27;;;;;;;23.70;5.77;;;;;;;;;;4934260;28;20204;-46
2023/03/09 07:35:54;;;;;;;23.50;4.75;;;;;;;;;;4996799;28;20041;-44
2023/03/09 07:38:22;;;;;;;23.40;6.20;;;;;;;;;;4987414;28;20041;-46
2023/03/09 07:40:54;;;;;;;21.67;5.53;;;;;;;;;;5003569;28;20515;-46
2023/03/09 07:43:22;;;;;;;24.27;6.03;;;;;;;;;;5001043;28;20041;-46
2023/03/09 07:45:50;;;;;;;25.83;5.90;;;;;;;;;;4999895;28;20513;-46
2023/03/09 07:48:17;;;;;;;22.75;5.53;;;;;;;;;;4985303;28;20048;-47
2023/03/09 07:50:45;;;;;;;29.67;6.40;;;;;;;;;;4991043;28;20139;-44
2023/03/09 07:53:13;;;;;;;25.00;5.35;;;;;;;;;;4990989;28;20503;-45
2023/03/09 07:55:40;;;;;;;25.05;6.57;;;;;;;;;;4998118;28;20042;-45
2023/03/09 07:58:09;;;;;;;28.37;6.63;;;;;;;;;;4981238;28;20041;-45
2023/03/09 08:00:38;;;;;;;24.13;5.55;;;;;;;;;;5009275;28;20133;-45
2023/03/09 08:03:06;;;;;;;24.13;6.20;;;;;;;;;;4988986;28;20038;-49
2023/03/09 08:05:33;;;;;;;23.15;5.22;;;;;;;;;;4994363;28;20053;-47
2023/03/09 08:08:01;;;;;;;22.10;4.85;;;;;;;;;;4979683;28;20048;-46
2023/03/09 08:10:29;;;;;;;18.77;5.07;;;;;;;;;;4989148;28;20708;-46
2023/03/09 08:12:57;;;;;;;25.30;5.68;;;;;;;;;;5003808;28;20264;-47
2023/03/09 08:15:26;;;;;;;23.02;5.88;;;;;;;;;;4994540;28;20128;-45
2023/03/09 08:17:54;;;;;;;22.83;5.15;;;;;;;;;;4998880;28;20045;-45
2023/03/09 08:20:22;;;;;;;24.40;5.63;;;;;;;;;;4981465;28;20132;-45
2023/03/09 08:22:50;;;;;;;18.47;5.40;;;;;;;;;;5003607;28;20459;-45
2023/03/09 08:25:18;;;;;;;26.58;5.55;;;;;;;;;;4990869;28;20061;-47
2023/03/09 08:27:46;;;;;;;27.25;6.10;;;;;;;;;;4999776;28;20065;-46
2023/03/09 08:30:14;;;;;;;25.20;5.97;;;;;;;;;;4988758;28;20040;-46
2023/03/09 08:32:46;;;;;;;20.15;5.57;;;;;;;;;;4995186;28;20155;-46
2023/03/09 08:35:18;;;;;;;22.90;5.20;;;;;;;;;;4989875;28;20098;-48
2023/03/09 08:37:46;;;;;;;21.63;5.30;;;;;;;;;;5000297;28;20041;-45
2023/03/09 08:40:14;;;;;;;23.35;5.68;;;;;;;;;;4993033;28;20034;-45
2023/03/09 08:42:41;;;;;;;21.92;4.88;;;;;;;;;;4977843;28;20045;-45
2023/03/09 08:45:10;;;;;;;21.48;5.15;;;;;;;;;;4978770;28;20133;-46
2023/03/09 08:47:37;;;;;;;25.17;5.97;;;;;;;;;;4983286;28;21340;-45
2023/03/09 08:50:07;;;;;;;23.67;5.57;;;;;;;;;;4996760;28;20041;-45
2023/03/09 08:52:37;;;;;;;20.35;5.13;;;;;;;;;;4986548;28;20398;-45
2023/03/09 08:55:05;;;;;;;23.58;5.43;;;;;;;;;;4991131;28;20149;-46
2023/03/09 08:57:33;;;;;;;23.40;6.35;;;;;;;;;;4983904;28;21504;-46
2023/03/09 09:00:01;;;;;;;22.93;6.13;;;;;;;;;;5001598;28;20041;-45
2023/03/09 09:02:30;;;;;;;25.30;5.15;;;;;;;;;;4986556;28;20148;-46
2023/03/09 09:04:58;;;;;;;24.45;6.38;;;;;;;;;;4988589;28;20049;-44
2023/03/09 09:07:29;;;;;;;26.37;5.67;;;;;;;;;;4283690;28;10000038;-45
2023/03/09 09:10:01;;;;;;;24.55;5.43;;;;;;;;;;4995490;28;20462;-45
2023/03/09 09:12:32;;;;;;;21.52;4.72;;;;;;;;;;4977754;28;20065;-45
2023/03/09 09:14:59;;;;;;;22.23;4.97;;;;;;;;;;4996284;28;20080;-45
2023/03/09 09:17:27;;;;;;;22.45;4.78;;;;;;;;;;4980159;28;20041;-45
2023/03/09 09:19:57;;;;;;;19.52;5.15;;;;;;;;;;5001048;28;20067;-44
2023/03/09 09:22:24;;;;;;;24.52;5.47;;;;;;;;;;4985833;28;20799;-47
2023/03/09 09:24:53;;;;;;;17.42;4.10;;;;;;;;;;4997664;28;20137;-45
2023/03/09 09:27:21;;;;;;;16.10;4.07;;;;;;;;;;4629999;28;10000411;-48
2023/03/09 09:29:49;;;;;;;17.15;4.22;;;;;;;;;;4953860;28;20045;-44
2023/03/09 09:32:16;;;;;;;17.90;4.25;;;;;;;;;;4967334;28;20509;-44
2023/03/09 09:34:44;;;;;;;17.88;4.80;;;;;;;;;;4998849;28;21022;-44
2023/03/09 09:37:12;;;;;;;19.70;4.53;;;;;;;;;;5003424;28;20636;-44
2023/03/09 09:39:39;;;;;;;15.50;4.53;;;;;;;;;;4989021;28;20132;-48
2023/03/09 09:42:13;;;;;;;20.17;5.05;;;;;;;;;;5003911;28;20045;-44
2023/03/09 09:44:43;;;;;;;19.90;5.60;;;;;;;;;;4987072;28;20079;-44
2023/03/09 09:47:13;;;;;;;15.10;3.83;;;;;;;;;;5000775;28;20506;-45
2023/03/09 09:49:47;;;;;;;20.90;4.50;;;;;;;;;;4993511;28;20053;-50
2023/03/09 09:52:36;;;;;;;18.73;4.75;;;;;;;;;;4984808;28;20053;-44
2023/03/09 09:55:07;;;;;;;17.48;5.07;;;;;;;;;;4993052;28;20038;-45
2023/03/09 09:57:42;;;;;;;18.65;4.32;;;;;;;;;;4995912;28;20453;-46
2023/03/09 10:00:14;;;;;;;14.77;4.07;;;;;;;;;;4998338;28;20103;-44
2023/03/09 10:02:53;;;;;;;13.33;3.97;;;;;;;;;;4984364;28;20209;-45
2023/03/09 10:05:24;;;;;;;18.45;4.35;;;;;;;;;;4987514;28;20129;-48
2023/03/09 10:07:52;;;;;;;19.17;4.88;;;;;;;;;;5004971;28;20042;-44
2023/03/09 10:10:21;;;;;;;16.17;4.85;;;;;;;;;;4994314;28;20084;-44
2023/03/09 10:12:50;;;;;;;17.92;5.18;;;;;;;;;;5005363;28;20069;-44
2023/03/09 10:15:21;;;;;;;18.60;5.27;;;;;;;;;;4985774;28;20522;-45
2023/03/09 10:17:52;;;;;;;18.67;5.68;;;;;;;;;;5010074;28;20037;-46
2023/03/09 10:20:23;;;;;;;20.65;5.05;;;;;;;;;;4991525;28;20056;-46
2023/03/09 10:22:53;;;;;;;22.60;5.68;;;;;;;;;;5006288;28;20049;-45
2023/03/09 10:25:22;;;;;;;20.20;5.35;;;;;;;;;;4995184;28;20091;-45
2023/03/09 10:27:58;;;;;;;15.43;5.00;;;;;;;;;;4995734;28;20392;-44
2023/03/09 10:30:30;;;;;;;16.90;4.70;;;;;;;;;;5008649;28;20121;-46
2023/03/09 10:33:01;;;;;;;17.88;5.05;;;;;;;;;;4979434;28;20460;-46
2023/03/09 10:35:32;;;;;;;18.13;5.18;;;;;;;;;;4999067;28;20606;-44
2023/03/09 10:38:00;;;;;;;17.58;4.82;;;;;;;;;;4982058;28;20057;-44
2023/03/09 10:40:29;;;;;;;21.97;5.03;;;;;;;;;;4999723;28;20038;-45
2023/03/09 10:42:59;;;;;;;23.23;6.13;;;;;;;;;;4988657;28;20069;-44
2023/03/09 10:45:28;;;;;;;26.38;5.88;;;;;;;;;;5000714;28;21052;-44
2023/03/09 10:47:58;;;;;;;23.33;6.50;;;;;;;;;;4980473;28;20593;-45
2023/03/09 10:50:27;;;;;;;25.95;6.90;;;;;;;;;;5003746;28;20127;-44
2023/03/09 10:52:55;;;;;;;22.27;6.27;;;;;;;;;;4987541;28;20049;-47
2023/03/09 10:55:35;;;;;;;28.05;6.63;;;;;;;;;;4976176;28;20037;-45
2023/03/09 10:58:14;;;;;;;34.05;6.57;;;;;;;;;;4993694;28;20067;-45
2023/03/09 11:00:51;;;;;;;34.03;7.13;;;;;;;;;;5007875;28;20049;-44
2023/03/09 11:03:21;;;;;;;28.83;6.55;;;;;;;;;;4996835;28;20041;-44
2023/03/09 11:05:48;;;;;;;28.57;7.20;;;;;;;;;;4990949;28;20128;-44
2023/03/09 11:08:24;;;;;;;34.85;7.50;;;;;;;;;;4999866;28;20491;-44
2023/03/09 11:11:01;;;;;;;26.20;6.18;;;;;;;;;;4987473;28;20126;-45
2023/03/09 11:13:32;;;;;;;30.63;7.57;;;;;;;;;;4978908;28;20068;-46
2023/03/09 11:16:07;;;;;;;28.05;6.40;;;;;;;;;;5000647;28;20499;-44
2023/03/09 11:18:35;;;;;;;27.90;6.97;;;;;;;;;;4995633;28;20048;-44
2023/03/09 11:21:03;;;;;;;29.75;6.18;;;;;;;;;;4982882;28;20461;-45
2023/03/09 11:23:32;;;;;;;25.15;6.13;;;;;;;;;;5002536;28;20482;-45
2023/03/09 11:26:02;;;;;;;29.77;6.93;;;;;;;;;;4992162;28;20073;-44
2023/03/09 11:28:36;;;;;;;33.25;6.45;;;;;;;;;;4651144;28;9999903;-45
2023/03/09 11:31:11;;;;;;;24.80;6.77;;;;;;;;;;4992371;28;20041;-45
2023/03/09 11:33:42;;;;;;;26.42;7.30;;;;;;;;;;4989978;28;20064;-45
2023/03/09 11:36:11;;;;;;;31.73;7.60;;;;;;;;;;4988609;28;20033;-44
2023/03/09 11:38:40;;;;;;;38.00;7.93;;;;;;;;;;4982472;28;20049;-45
2023/03/09 11:41:11;;;;;;;29.85;6.28;;;;;;;;;;4998877;28;20121;-44
2023/03/09 11:43:42;;;;;;;33.43;6.70;;;;;;;;;;4980493;28;20780;-44
2023/03/09 11:46:12;;;;;;;31.48;7.45;;;;;;;;;;4976467;28;20701;-45
2023/03/09 11:49:04;;;;;;;33.65;6.90;;;;;;;;;;4994909;28;20514;-44
2023/03/09 11:51:36;;;;;;;48.53;8.32;;;;;;;;;;4983493;28;20808;-45
2023/03/09 11:54:11;;;;;;;40.70;8.75;;;;;;;;;;4970776;28;20059;-44
2023/03/09 11:56:42;;;;;;;34.43;8.07;;;;;;;;;;4984530;28;20415;-46
2023/03/09 11:59:15;;;;;;;35.80;8.40;;;;;;;;;;4965088;28;20038;-46
2023/03/09 12:01:45;;;;;;;33.35;9.18;;;;;;;;;;4985608;28;20073;-45
2023/03/09 12:04:15;;;;;;;42.42;9.00;;;;;;;;;;4969857;28;20099;-46
2023/03/09 12:06:46;;;;;;;40.75;9.02;;;;;;;;;;4986505;28;20079;-45
2023/03/09 12:09:23;;;;;;;42.23;7.90;;;;;;;;;;4947101;28;20148;-45
2023/03/09 12:11:54;;;;;;;37.65;8.35;;;;;;;;;;4964481;28;20061;-45
2023/03/09 12:14:26;;;;;;;49.45;9.10;;;;;;;;;;4985647;28;20513;-45
2023/03/09 12:16:55;;;;;;;49.35;7.88;;;;;;;;;;4979094;28;20049;-45
2023/03/09 12:19:24;;;;;;;43.08;8.88;;;;;;;;;;4962197;28;20049;-45
2023/03/09 12:21:59;;;;;;;37.83;8.03;;;;;;;;;;4970776;28;20775;-49
2023/03/09 12:24:29;;;;;;;45.40;8.27;;;;;;;;;;4982636;28;20067;-44
2023/03/09 12:26:58;;;;;;;44.05;8.07;;;;;;;;;;4976097;28;20490;-45
2023/03/09 12:29:30;;;;;;;47.55;8.77;;;;;;;;;;4961702;28;20041;-44
2023/03/09 12:32:28;;;;;;;53.85;9.45;;;;;;;;;;4973870;28;20534;-44
2023/03/09 12:34:57;;;;;;;47.93;8.50;;;;;;;;;;4917801;28;20579;-45
2023/03/09 12:37:58;;;;;;;44.35;8.43;;;;;;;;;;4969819;28;20053;-45
2023/03/09 12:40:34;;;;;;;43.25;9.38;;;;;;;;;;4973992;28;20056;-47
2023/03/09 12:43:21;;;;;;;47.45;8.75;;;;;;;;;;4959692;28;20683;-47
2023/03/09 12:45:51;;;;;;;42.90;9.32;;;;;;;;;;4978218;28;20077;-44
2023/03/09 12:48:23;;;;;;;57.53;11.33;;;;;;;;;;4963114;28;20081;-46
2023/03/09 12:50:54;;;;;;;47.63;10.30;;;;;;;;;;4963801;28;20495;-45
2023/03/09 12:53:22;;;;;;;54.95;13.10;;;;;;;;;;4984610;28;20401;-45
2023/03/09 12:55:52;;;;;;;54.85;12.60;;;;;;;;;;4980803;28;20107;-44
2023/03/09 12:58:41;;;;;;;52.80;11.80;;;;;;;;;;4971833;28;20055;-45
2023/03/09 13:01:12;;;;;;;48.80;11.53;;;;;;;;;;4959860;28;21356;-45
2023/03/09 13:03:42;;;;;;;53.35;10.85;;;;;;;;;;4981081;28;20052;-44
2023/03/09 13:06:24;;;;;;;47.05;10.45;;;;;;;;;;4980322;28;20052;-44
2023/03/09 13:08:53;;;;;;;51.47;12.00;;;;;;;;;;4963302;28;20570;-45
2023/03/09 13:11:22;;;;;;;61.70;12.93;;;;;;;;;;4978191;28;20886;-45
2023/03/09 13:13:50;;;;;;;65.03;13.47;;;;;;;;;;4962505;28;20521;-46
2023/03/09 13:16:48;;;;;;;62.85;13.23;;;;;;;;;;4980481;28;20046;-46
2023/03/09 13:19:34;;;;;;;47.50;12.02;;;;;;;;;;4266710;28;10000746;-47
2023/03/09 13:22:18;;;;;;;52.70;11.10;;;;;;;;;;4978053;28;20045;-45
2023/03/09 13:24:47;;;;;;;53.35;11.40;;;;;;;;;;4972838;28;20095;-44
2023/03/09 13:27:19;;;;;;;54.47;11.37;;;;;;;;;;4966386;28;20897;-45
2023/03/09 13:29:48;;;;;;;60.25;11.50;;;;;;;;;;4966511;28;20057;-45
2023/03/09 13:32:21;;;;;;;44.80;9.55;;;;;;;;;;4967466;28;21505;-45
2023/03/09 13:34:49;;;;;;;47.53;10.88;;;;;;;;;;4971754;28;20042;-46
2023/03/09 13:37:19;;;;;;;58.90;11.95;;;;;;;;;;4982650;28;20044;-44
2023/03/09 13:39:57;;;;;;;70.93;12.33;;;;;;;;;;4934340;28;20041;-46
2023/03/09 13:42:25;;;;;;;59.53;10.73;;;;;;;;;;4964626;28;20824;-46
2023/03/09 13:44:56;;;;;;;53.83;10.68;;;;;;;;;;4978516;28;20042;-45
2023/03/09 13:47:25;;;;;;;50.92;10.38;;;;;;;;;;4973482;28;20431;-46
2023/03/09 13:49:53;;;;;;;47.67;10.38;;;;;;;;;;4968004;28;20543;-44
2023/03/09 13:52:23;;;;;;;48.25;9.90;;;;;;;;;;4286104;28;10021946;-46
2023/03/09 13:54:53;;;;;;;44.42;9.38;;;;;;;;;;4977822;28;21470;-45
2023/03/09 13:57:22;;;;;;;39.45;10.35;;;;;;;;;;4968945;28;20037;-46
2023/03/09 13:59:54;;;;;;;39.60;9.10;;;;;;;;;;4964796;28;20404;-45
2023/03/09 14:02:22;;;;;;;45.90;9.13;;;;;;;;;;4951491;28;20696;-46
2023/03/09 14:04:51;;;;;;;49.67;10.60;;;;;;;;;;4969873;28;20132;-47
2023/03/09 14:07:20;;;;;;;43.63;9.23;;;;;;;;;;4974548;28;20041;-47
2023/03/09 14:09:55;;;;;;;46.97;10.70;;;;;;;;;;4967699;28;20052;-45
2023/03/09 14:12:31;;;;;;;41.27;9.60;;;;;;;;;;4976854;28;20049;-46
2023/03/09 14:15:00;;;;;;;42.17;9.27;;;;;;;;;;4980947;28;20050;-46
2023/03/09 14:17:28;;;;;;;40.95;9.48;;;;;;;;;;4977720;28;20513;-44
2023/03/09 14:19:59;;;;;;;47.28;10.45;;;;;;;;;;4974163;28;20052;-45
2023/03/09 14:22:28;;;;;;;52.03;10.00;;;;;;;;;;4978191;28;20511;-45
2023/03/09 14:24:57;;;;;;;39.00;9.53;;;;;;;;;;4987816;28;20104;-46
2023/03/09 14:27:25;;;;;;;44.08;7.90;;;;;;;;;;4969360;28;20124;-46
2023/03/09 14:29:53;;;;;;;45.67;8.05;;;;;;;;;;4974865;28;20057;-46
2023/03/09 14:32:26;;;;;;;51.45;5.38;;;;;;;;;;4969863;28;20629;-46
2023/03/09 14:34:55;;;;;;;39.05;4.32;;;;;;;;;;4979310;28;20048;-47
2023/03/09 14:37:25;;;;;;;37.60;5.57;;;;;;;;;;4982678;28;20124;-45
2023/03/09 14:39:52;;;;;;;36.17;5.22;;;;;;;;;;4957210;28;20124;-46
2023/03/09 14:42:27;;;;;;;21.80;3.10;;;;;;;;;;4985095;28;20072;-45